Time;durP1;ratioP1;P1;durP2;ratioP2;P2;SDS_P1;SDS_P2;PMS_P1;PMS_P2;Temp;Humidity;BMP_temperature;BMP_pressure;BME280_temperature;BME280_humidity;BME280_pressure;Samples;Min_cycle;Max_cycle;Signal;HPM_P1;HPM_P2
2021/12/26 00:01:25;;;;;;;47.17;30.97;;;;;;;2.25;100.00;99314.78;4986683;28;20565;-51
2021/12/26 00:03:51;;;;;;;45.30;31.03;;;;;;;2.27;100.00;99317.34;4982485;28;20229;-51
2021/12/26 00:06:20;;;;;;;47.73;31.27;;;;;;;2.24;100.00;99314.75;4988859;28;20742;-50
2021/12/26 00:08:47;;;;;;;46.67;31.70;;;;;;;2.21;100.00;99315.59;4980221;28;20327;-51
2021/12/26 00:11:13;;;;;;;45.53;29.83;;;;;;;2.26;100.00;99313.06;4979203;28;20359;-50
2021/12/26 00:13:40;;;;;;;42.87;29.50;;;;;;;2.26;100.00;99319.06;4981540;28;20193;-50
2021/12/26 00:16:09;;;;;;;45.50;30.30;;;;;;;2.27;100.00;99310.53;4985352;28;20204;-51
2021/12/26 00:18:35;;;;;;;42.37;30.23;;;;;;;2.25;100.00;99312.22;4979759;28;20234;-51
2021/12/26 00:21:01;;;;;;;42.17;30.53;;;;;;;2.27;100.00;99320.75;4982122;28;20189;-51
2021/12/26 00:23:27;;;;;;;48.17;31.07;;;;;;;2.26;100.00;99308.84;4980724;28;20639;-51
2021/12/26 00:25:54;;;;;;;46.30;31.27;;;;;;;2.25;100.00;99312.22;4984466;28;20404;-51
2021/12/26 00:28:20;;;;;;;44.13;30.73;;;;;;;2.26;100.00;99306.28;4981222;28;20328;-51
2021/12/26 00:30:45;;;;;;;41.60;29.00;;;;;;;2.27;100.00;99307.97;4983322;28;20324;-50
2021/12/26 00:33:10;;;;;;;43.57;30.90;;;;;;;2.26;100.00;99305.41;4979466;28;20196;-51
2021/12/26 00:35:36;;;;;;;47.13;31.67;;;;;;;2.28;100.00;99311.41;4976418;28;20634;-51
2021/12/26 00:38:02;;;;;;;42.83;31.07;;;;;;;2.26;100.00;99298.63;4981808;28;20628;-51
2021/12/26 00:40:27;;;;;;;44.97;30.10;;;;;;;2.28;100.00;99294.38;4984798;28;20193;-53
2021/12/26 00:42:55;;;;;;;41.73;30.30;;;;;;;2.27;100.00;99302.88;5011210;28;20194;-50
2021/12/26 00:45:21;;;;;;;45.27;30.20;;;;;;;2.27;100.00;99312.22;4981446;28;20188;-50
2021/12/26 00:47:47;;;;;;;41.97;29.97;;;;;;;2.25;100.00;99301.16;4983305;28;20220;-52
2021/12/26 00:50:24;;;;;;;47.13;30.70;;;;;;;2.25;100.00;99301.16;4979231;28;20247;-51
2021/12/26 00:52:49;;;;;;;44.87;31.73;;;;;;;2.26;100.00;99313.06;4979933;28;20681;-51
2021/12/26 00:55:16;;;;;;;40.00;29.10;;;;;;;2.27;100.00;99295.22;4981083;28;20251;-51
2021/12/26 00:57:41;;;;;;;46.40;31.93;;;;;;;2.26;100.00;99302.88;4981218;28;20300;-50
2021/12/26 01:00:12;;;;;;;46.10;31.23;;;;;;;2.25;100.00;99293.50;4983470;28;20271;-51
2021/12/26 01:02:37;;;;;;;42.33;31.37;;;;;;;2.25;100.00;99307.13;4975984;28;20201;-50
2021/12/26 01:05:06;;;;;;;42.80;30.03;;;;;;;2.25;100.00;99288.38;4986587;28;20185;-51
2021/12/26 01:10:40;;;;;;;42.53;30.37;;;;;;;2.25;100.00;99278.16;4923321;29;20277;-51
2021/12/26 01:13:17;;;;;;;46.47;31.27;;;;;;;2.21;100.00;99286.63;4986182;28;20290;-51
2021/12/26 01:15:45;;;;;;;45.70;30.70;;;;;;;2.19;100.00;99281.53;4978047;28;20708;-50
2021/12/26 01:18:11;;;;;;;48.07;31.93;;;;;;;2.19;100.00;99283.25;4982526;28;20220;-50
2021/12/26 01:20:42;;;;;;;42.30;30.10;;;;;;;2.20;100.00;99288.34;4983149;28;20193;-49
2021/12/26 01:23:09;;;;;;;43.67;31.70;;;;;;;2.19;100.00;99285.78;4980819;28;20189;-51
2021/12/26 01:25:35;;;;;;;45.60;31.63;;;;;;;2.17;100.00;99295.97;4984074;28;20657;-52
2021/12/26 01:28:02;;;;;;;43.37;30.70;;;;;;;2.18;100.00;99295.13;4986867;28;20248;-51
2021/12/26 01:30:27;;;;;;;43.97;30.37;;;;;;;2.18;100.00;99295.13;4980477;28;20200;-53
2021/12/26 01:32:52;;;;;;;42.57;29.77;;;;;;;2.16;100.00;99301.91;4983936;28;20193;-51
2021/12/26 01:35:18;;;;;;;42.70;29.70;;;;;;;2.17;100.00;99300.25;4985471;28;20226;-52
2021/12/26 01:37:44;;;;;;;43.80;30.30;;;;;;;2.15;100.00;99301.91;4991599;28;20216;-54
2021/12/26 01:40:10;;;;;;;42.27;29.40;;;;;;;2.18;100.00;99299.41;5000419;28;20209;-53
2021/12/26 01:42:35;;;;;;;43.37;30.37;;;;;;;2.17;100.00;99301.06;4997271;28;20190;-53
2021/12/26 01:45:01;;;;;;;40.93;29.10;;;;;;;2.20;100.00;99298.56;4985544;28;20200;-52
2021/12/26 01:47:26;;;;;;;40.90;28.57;;;;;;;2.21;100.00;99300.28;4990659;28;20336;-52
2021/12/26 01:49:52;;;;;;;42.07;29.40;;;;;;;2.20;100.00;99302.78;5019876;28;20238;-53
2021/12/26 01:52:20;;;;;;;41.80;29.20;;;;;;;2.21;100.00;99300.28;4981881;28;20217;-51
2021/12/26 01:54:48;;;;;;;40.73;29.20;;;;;;;2.23;100.00;99305.38;4985101;28;20236;-50
2021/12/26 01:57:17;;;;;;;42.53;28.10;;;;;;;2.24;100.00;99307.09;4987989;28;20213;-51
2021/12/26 01:59:43;;;;;;;35.57;26.43;;;;;;;2.21;100.00;99300.28;4985637;28;20792;-50
2021/12/26 02:02:12;;;;;;;37.50;27.47;;;;;;;2.19;100.00;99307.06;4987641;28;20189;-50
2021/12/26 02:04:43;;;;;;;38.53;27.83;;;;;;;2.20;100.00;99305.34;4987303;28;20244;-51
2021/12/26 02:07:10;;;;;;;40.27;29.03;;;;;;;2.22;100.00;99296.88;4985626;28;20296;-50
2021/12/26 02:09:37;;;;;;;40.73;28.83;;;;;;;2.21;100.00;99292.63;4981168;28;20705;-51
2021/12/26 02:12:06;;;;;;;41.40;29.27;;;;;;;2.19;100.00;99294.28;4986721;28;20733;-50
2021/12/26 02:14:34;;;;;;;38.70;28.47;;;;;;;2.17;100.00;99308.75;4986977;28;20259;-50
2021/12/26 02:16:59;;;;;;;43.57;29.77;;;;;;;2.15;100.00;99307.03;4984972;28;20220;-51
2021/12/26 02:19:25;;;;;;;40.87;28.93;;;;;;;2.18;100.00;99297.69;4987601;28;20658;-49
2021/12/26 02:22:11;;;;;;;40.17;28.27;;;;;;;2.18;100.00;99299.41;4989774;28;20709;-50
2021/12/26 02:25:09;;;;;;;41.33;29.10;;;;;;;2.19;100.00;99303.66;4986005;28;20196;-49
2021/12/26 02:27:32;;;;;;;42.47;29.03;;;;;;;2.19;100.00;99301.13;4984465;28;20221;-52
2021/12/26 02:30:05;;;;;;;39.43;29.57;;;;;;;2.19;100.00;99307.06;4987163;28;20192;-52
2021/12/26 02:32:31;;;;;;;39.87;28.60;;;;;;;2.19;100.00;99311.31;4985996;28;20857;-52
2021/12/26 02:34:58;;;;;;;35.73;26.10;;;;;;;2.18;100.00;99305.34;4987706;28;20201;-52
2021/12/26 02:37:24;;;;;;;40.47;28.30;;;;;;;2.20;100.00;99301.13;4983122;28;20218;-50
2021/12/26 02:39:52;;;;;;;39.87;28.80;;;;;;;2.19;100.00;99298.56;4979319;28;20258;-52
2021/12/26 02:42:19;;;;;;;42.33;29.83;;;;;;;2.20;100.00;99307.91;4979910;28;20677;-50
2021/12/26 02:44:46;;;;;;;40.90;27.90;;;;;;;2.20;100.00;99303.66;5017096;28;20242;-50
2021/12/26 02:47:11;;;;;;;39.33;29.13;;;;;;;2.19;100.00;99298.56;5016427;28;20629;-50
2021/12/26 02:49:36;;;;;;;40.23;29.83;;;;;;;2.22;100.00;99304.53;4982256;28;20258;-52
2021/12/26 02:52:02;;;;;;;36.13;27.17;;;;;;;2.19;100.00;99304.50;4985502;28;20579;-50
2021/12/26 02:54:28;;;;;;;40.00;27.00;;;;;;;2.20;100.00;99303.66;4985891;28;20223;-51
2021/12/26 02:56:54;;;;;;;37.80;27.97;;;;;;;2.23;100.00;99318.16;4987749;28;20302;-51
2021/12/26 02:59:19;;;;;;;38.03;27.93;;;;;;;2.24;100.00;99312.19;4985668;28;20251;-51
2021/12/26 03:01:45;;;;;;;41.13;27.50;;;;;;;2.22;100.00;99304.53;4982850;28;20608;-51
2021/12/26 03:04:10;;;;;;;36.53;27.50;;;;;;;2.22;100.00;99307.09;4986199;28;20571;-51
2021/12/26 03:09:04;;;;;;;40.20;29.47;;;;;;;2.22;100.00;99304.53;4988002;28;20612;-51
2021/12/26 03:11:30;;;;;;;37.43;27.90;;;;;;;2.27;100.00;99305.41;4985740;28;20209;-51
2021/12/26 03:13:56;;;;;;;36.37;26.53;;;;;;;2.25;100.00;99296.91;4979403;28;20716;-51
2021/12/26 03:16:21;;;;;;;36.73;27.73;;;;;;;2.24;100.00;99295.22;4981166;28;20694;-51
2021/12/26 03:18:46;;;;;;;34.53;26.23;;;;;;;2.26;100.00;99300.31;4981820;28;20886;-51
2021/12/26 03:21:12;;;;;;;33.73;26.73;;;;;;;2.27;100.00;99297.75;4985607;28;20185;-51
2021/12/26 03:23:38;;;;;;;40.00;28.50;;;;;;;2.27;100.00;99307.13;4987394;28;20655;-51
2021/12/26 03:26:06;;;;;;;36.07;28.33;;;;;;;2.24;100.00;99310.53;4985436;28;20798;-51
2021/12/26 03:28:32;;;;;;;36.73;27.53;;;;;;;2.25;100.00;99307.13;5010284;28;20752;-51
2021/12/26 03:30:59;;;;;;;35.27;26.87;;;;;;;2.25;100.00;99307.13;4987026;28;20213;-51
2021/12/26 03:33:25;;;;;;;36.47;27.67;;;;;;;2.24;100.00;99309.66;4981755;28;20860;-51
2021/12/26 03:35:51;;;;;;;36.47;26.93;;;;;;;2.27;100.00;99312.22;4984937;28;20193;-51
2021/12/26 03:38:17;;;;;;;34.93;26.77;;;;;;;2.28;100.00;99306.28;4988115;28;20220;-51
2021/12/26 03:40:46;;;;;;;34.20;26.27;;;;;;;2.28;100.00;99312.25;4985873;28;20192;-51
2021/12/26 03:43:12;;;;;;;35.10;26.53;;;;;;;2.29;100.00;99313.09;4982361;28;20196;-51
2021/12/26 03:45:41;;;;;;;35.27;26.23;;;;;;;2.28;100.00;99317.34;4983464;28;20193;-51
2021/12/26 03:48:07;;;;;;;38.87;28.43;;;;;;;2.31;100.00;99310.56;4983640;28;20216;-51
2021/12/26 03:50:34;;;;;;;37.83;27.57;;;;;;;2.28;100.00;99319.06;4984282;28;20204;-51
2021/12/26 03:53:02;;;;;;;36.57;27.50;;;;;;;2.26;100.00;99313.94;4982022;28;20193;-51
2021/12/26 03:55:27;;;;;;;32.97;26.60;;;;;;;2.29;100.00;99308.00;4983558;28;20209;-51
2021/12/26 03:57:53;;;;;;;36.43;26.93;;;;;;;2.28;100.00;99311.41;4982744;28;20224;-51
2021/12/26 04:00:23;;;;;;;35.87;27.43;;;;;;;2.25;100.00;99317.34;4984031;28;20200;-51
2021/12/26 04:02:48;;;;;;;36.97;27.67;;;;;;;2.24;100.00;99320.72;4983632;28;20192;-51
2021/12/26 04:05:14;;;;;;;37.47;27.70;;;;;;;2.23;100.00;99318.16;4982067;28;20205;-51
2021/12/26 04:07:41;;;;;;;38.33;28.53;;;;;;;2.22;100.00;99316.44;4979054;28;20209;-51
2021/12/26 04:10:09;;;;;;;41.70;29.23;;;;;;;2.19;100.00;99313.88;4980753;28;20193;-51
2021/12/26 04:12:43;;;;;;;37.07;28.73;;;;;;;2.24;100.00;99314.75;4982514;28;20304;-50
2021/12/26 04:15:11;;;;;;;40.93;29.20;;;;;;;2.22;100.00;99317.31;4983506;28;20246;-50
2021/12/26 04:17:36;;;;;;;39.90;28.87;;;;;;;2.26;100.00;99313.06;4982317;28;20675;-51
2021/12/26 04:20:05;;;;;;;39.20;28.27;;;;;;;2.24;100.00;99309.66;4983080;28;20221;-51
2021/12/26 04:22:30;;;;;;;39.63;27.67;;;;;;;2.24;100.00;99312.19;4983046;28;20196;-51
2021/12/26 04:24:56;;;;;;;40.73;28.43;;;;;;;2.22;100.00;99311.31;4984772;28;21965;-51
2021/12/26 04:27:24;;;;;;;39.30;27.50;;;;;;;2.22;100.00;99308.78;5008809;28;20213;-52
2021/12/26 04:29:50;;;;;;;39.20;26.50;;;;;;;2.24;100.00;99310.53;4992210;28;20724;-51
2021/12/26 04:32:16;;;;;;;39.10;27.90;;;;;;;2.24;100.00;99314.75;4983219;28;20219;-51
2021/12/26 04:34:41;;;;;;;36.00;26.70;;;;;;;2.26;100.00;99308.84;4985979;28;20585;-51
2021/12/26 04:37:07;;;;;;;37.03;27.40;;;;;;;2.26;100.00;99305.41;4983375;28;20576;-51
2021/12/26 04:39:32;;;;;;;38.27;27.93;;;;;;;2.25;100.00;99312.22;4978716;28;20198;-51
2021/12/26 04:41:57;;;;;;;34.10;26.10;;;;;;;2.25;100.00;99311.38;4983036;28;20228;-51
2021/12/26 04:44:25;;;;;;;39.30;27.80;;;;;;;2.22;100.00;99312.19;4981064;28;20620;-51
2021/12/26 04:46:50;;;;;;;35.97;26.13;;;;;;;2.24;100.00;99314.75;4982349;28;20947;-51
2021/12/26 04:49:16;;;;;;;35.10;26.80;;;;;;;2.24;100.00;99317.31;4983215;28;20185;-51
2021/12/26 04:51:41;;;;;;;33.50;26.07;;;;;;;2.24;100.00;99310.53;4985361;28;20209;-49
2021/12/26 04:54:07;;;;;;;38.87;27.80;;;;;;;2.26;100.00;99318.19;4981322;28;20192;-50
2021/12/26 04:56:33;;;;;;;34.27;26.30;;;;;;;2.24;100.00;99318.19;4979766;28;20197;-50
2021/12/26 04:58:58;;;;;;;32.27;24.20;;;;;;;2.28;100.00;99322.44;4979691;28;20284;-50
2021/12/26 05:01:23;;;;;;;30.40;24.37;;;;;;;2.26;100.00;99319.06;4978096;28;20566;-50
2021/12/26 05:03:49;;;;;;;32.93;25.53;;;;;;;2.27;100.00;99313.06;4981802;28;20197;-50
2021/12/26 05:06:14;;;;;;;34.50;26.03;;;;;;;2.28;100.00;99321.59;4982804;28;20193;-50
2021/12/26 05:08:40;;;;;;;33.27;25.77;;;;;;;2.31;100.00;99320.78;5013448;28;20320;-50
2021/12/26 05:11:05;;;;;;;33.57;25.67;;;;;;;2.31;100.00;99318.22;4982096;28;20213;-49
2021/12/26 05:13:31;;;;;;;32.33;23.90;;;;;;;2.28;100.00;99317.34;5015255;28;20197;-50
2021/12/26 05:15:56;;;;;;;33.37;26.57;;;;;;;2.32;100.00;99325.91;4983050;28;20220;-49
2021/12/26 05:18:22;;;;;;;32.27;23.80;;;;;;;2.29;100.00;99324.16;4979199;28;20292;-52
2021/12/26 05:20:47;;;;;;;32.50;24.80;;;;;;;2.29;100.00;99319.06;4980730;28;20198;-53
2021/12/26 05:23:13;;;;;;;31.90;25.23;;;;;;;2.29;100.00;99321.59;4988005;28;20284;-51
2021/12/26 05:25:38;;;;;;;32.40;24.87;;;;;;;2.29;100.00;99329.28;4987034;28;20271;-51
2021/12/26 05:28:04;;;;;;;32.93;25.07;;;;;;;2.28;100.00;99326.72;4986922;28;20788;-50
2021/12/26 05:30:29;;;;;;;29.73;23.20;;;;;;;2.27;100.00;99323.28;4988940;28;20190;-50
2021/12/26 05:32:55;;;;;;;32.37;25.10;;;;;;;2.27;100.00;99328.41;5018236;28;20209;-50
2021/12/26 05:35:21;;;;;;;33.60;25.73;;;;;;;2.28;100.00;99327.56;4987819;28;20599;-52
2021/12/26 05:37:48;;;;;;;31.27;25.20;;;;;;;2.29;100.00;99325.88;4986940;28;20213;-50
2021/12/26 05:40:15;;;;;;;31.43;24.43;;;;;;;2.29;100.00;99330.97;4984893;28;20576;-52
2021/12/26 05:42:41;;;;;;;34.17;25.70;;;;;;;2.32;100.00;99333.56;4982544;28;20280;-52
2021/12/26 05:45:08;;;;;;;32.80;23.30;;;;;;;2.32;100.00;99325.91;4987157;28;20216;-50
2021/12/26 05:47:34;;;;;;;31.73;23.70;;;;;;;2.34;100.00;99331.03;4987090;28;20232;-50
2021/12/26 05:50:00;;;;;;;30.87;24.57;;;;;;;2.33;100.00;99322.50;4982435;28;20192;-52
2021/12/26 05:52:26;;;;;;;31.00;24.60;;;;;;;2.33;100.00;99326.75;4988528;28;20267;-50
2021/12/26 05:54:52;;;;;;;31.40;24.27;;;;;;;2.35;100.00;99328.47;4988155;28;20189;-52
2021/12/26 05:57:17;;;;;;;31.23;24.03;;;;;;;2.33;100.00;99327.63;4986040;28;20212;-50
2021/12/26 05:59:43;;;;;;;28.13;23.33;;;;;;;2.31;100.00;99328.44;4983949;28;20204;-50
2021/12/26 06:02:09;;;;;;;28.90;23.83;;;;;;;2.31;100.00;99320.78;4983632;28;20192;-50
2021/12/26 06:04:39;;;;;;;30.17;23.70;;;;;;;2.31;100.00;99325.88;4985160;28;20189;-50
2021/12/26 06:07:04;;;;;;;28.90;23.67;;;;;;;2.33;100.00;99324.19;4979050;28;20236;-50
2021/12/26 06:09:30;;;;;;;30.37;23.13;;;;;;;2.35;100.00;99332.72;4981971;28;20382;-50
2021/12/26 06:11:55;;;;;;;28.23;22.80;;;;;;;2.37;100.00;99331.06;4984949;28;20580;-50
2021/12/26 06:14:21;;;;;;;29.47;23.30;;;;;;;2.35;100.00;99325.91;4984231;28;20194;-50
2021/12/26 06:16:46;;;;;;;30.80;23.30;;;;;;;2.33;100.00;99322.50;4981202;28;20217;-50
2021/12/26 06:19:14;;;;;;;28.00;23.27;;;;;;;2.34;100.00;99324.22;4983899;28;20281;-50
2021/12/26 06:21:40;;;;;;;29.00;23.93;;;;;;;2.35;100.00;99327.63;4978342;28;20223;-50
2021/12/26 06:24:05;;;;;;;31.13;23.97;;;;;;;2.35;100.00;99328.47;4982661;28;20303;-51
2021/12/26 06:26:32;;;;;;;26.20;21.67;;;;;;;2.38;100.00;99327.66;4999485;28;20193;-51
2021/12/26 06:28:57;;;;;;;28.70;24.20;;;;;;;2.37;100.00;99331.06;4983330;28;20202;-52
2021/12/26 06:31:22;;;;;;;27.90;23.23;;;;;;;2.38;100.00;99335.31;4984322;28;20697;-52
2021/12/26 06:33:48;;;;;;;29.03;22.67;;;;;;;2.35;100.00;99335.28;5016551;28;20203;-52
2021/12/26 06:36:17;;;;;;;28.37;22.37;;;;;;;2.36;100.00;99330.19;4985287;28;20269;-52
2021/12/26 06:38:44;;;;;;;27.90;23.03;;;;;;;2.37;100.00;99328.50;4985106;28;20228;-52
2021/12/26 06:41:12;;;;;;;26.33;23.03;;;;;;;2.38;100.00;99336.16;4984334;28;20295;-52
2021/12/26 06:43:39;;;;;;;26.03;22.07;;;;;;;2.39;100.00;99332.78;4978249;28;20224;-50
2021/12/26 06:46:05;;;;;;;26.97;22.33;;;;;;;2.36;100.00;99335.28;4980757;28;20328;-50
2021/12/26 06:48:31;;;;;;;29.20;23.37;;;;;;;2.35;100.00;99337.84;4980986;28;20264;-50
2021/12/26 06:50:56;;;;;;;26.93;22.77;;;;;;;2.33;100.00;99340.38;4986495;28;20265;-50
2021/12/26 06:53:22;;;;;;;27.70;22.87;;;;;;;2.34;100.00;99341.22;4985292;28;20232;-50
2021/12/26 06:55:48;;;;;;;26.57;22.60;;;;;;;2.35;100.00;99348.06;4987671;28;20193;-51
2021/12/26 06:58:14;;;;;;;27.30;22.57;;;;;;;2.35;100.00;99350.59;4987237;28;20643;-50
2021/12/26 07:00:41;;;;;;;25.87;21.43;;;;;;;2.34;100.00;99359.09;4986594;28;20192;-50
2021/12/26 07:03:07;;;;;;;25.80;21.40;;;;;;;2.33;100.00;99350.59;4988316;28;20446;-50
2021/12/26 07:05:32;;;;;;;27.33;23.10;;;;;;;2.35;100.00;99351.44;4988201;28;20270;-51
2021/12/26 07:07:58;;;;;;;25.70;21.57;;;;;;;2.37;100.00;99362.53;4990195;28;20617;-51
2021/12/26 07:10:23;;;;;;;27.20;22.63;;;;;;;2.37;100.00;99357.44;4984647;28;20626;-51
2021/12/26 07:12:48;;;;;;;26.37;21.80;;;;;;;2.38;100.00;99369.34;4988751;28;20217;-50
2021/12/26 07:15:14;;;;;;;27.20;21.90;;;;;;;2.40;100.00;99369.38;4981655;28;20225;-50
2021/12/26 07:17:41;;;;;;;26.83;22.67;;;;;;;2.41;100.00;99364.28;4982274;28;20252;-50
2021/12/26 07:20:08;;;;;;;26.17;20.90;;;;;;;2.43;100.00;99366.84;4984663;28;20276;-50
2021/12/26 07:22:34;;;;;;;25.00;21.17;;;;;;;2.45;100.00;99370.25;4983601;28;20194;-50
2021/12/26 07:24:59;;;;;;;28.70;22.80;;;;;;;2.45;100.00;99365.16;4989599;28;20204;-51
2021/12/26 07:27:25;;;;;;;26.80;22.53;;;;;;;2.43;100.00;99372.81;4980647;28;20221;-50
2021/12/26 07:29:50;;;;;;;25.77;21.70;;;;;;;2.44;100.00;99366.00;4980326;28;20229;-50
2021/12/26 07:32:15;;;;;;;28.13;22.33;;;;;;;2.47;100.00;99368.59;4990511;28;20251;-50
2021/12/26 07:34:41;;;;;;;27.50;21.50;;;;;;;2.51;100.00;99366.91;4986962;28;20194;-50
2021/12/26 07:37:07;;;;;;;25.87;21.63;;;;;;;2.49;100.00;99364.34;4988691;28;20224;-50
2021/12/26 07:39:33;;;;;;;26.23;21.77;;;;;;;2.51;100.00;99366.91;4989591;28;20192;-50
2021/12/26 07:41:58;;;;;;;27.87;22.03;;;;;;;2.51;100.00;99367.78;4989974;28;20192;-50
2021/12/26 07:44:24;;;;;;;24.90;21.17;;;;;;;2.53;100.00;99367.78;4982211;28;20193;-50
2021/12/26 07:46:49;;;;;;;26.73;21.10;;;;;;;2.53;100.00;99367.78;4980529;28;20285;-50
2021/12/26 07:49:16;;;;;;;27.27;22.13;;;;;;;2.53;100.00;99366.09;4981671;28;20562;-50
2021/12/26 07:51:43;;;;;;;25.60;21.23;;;;;;;2.53;100.00;99367.78;4984012;28;20515;-51
2021/12/26 07:54:09;;;;;;;23.37;20.40;;;;;;;2.54;100.00;99375.47;4981213;28;20221;-50
2021/12/26 07:56:34;;;;;;;26.10;20.63;;;;;;;2.55;100.00;99372.09;4986503;28;20225;-50
2021/12/26 07:58:59;;;;;;;26.97;21.97;;;;;;;2.56;100.00;99372.94;4986466;28;20232;-50
2021/12/26 08:01:31;;;;;;;24.83;21.63;;;;;;;2.56;100.00;99372.94;4987136;28;20289;-50
2021/12/26 08:04:00;;;;;;;25.20;21.10;;;;;;;2.58;100.00;99376.34;4989342;28;20193;-50
2021/12/26 08:06:35;;;;;;;26.03;21.33;;;;;;;2.61;100.00;99384.06;5059895;28;20588;-50
2021/12/26 08:09:01;;;;;;;25.67;20.80;;;;;;;2.61;100.00;99381.50;5034738;28;20295;-50
2021/12/26 08:11:26;;;;;;;26.93;21.50;;;;;;;2.59;100.00;99378.06;5032563;28;20199;-50
2021/12/26 08:13:52;;;;;;;25.43;20.77;;;;;;;2.61;100.00;99381.50;5028949;28;21895;-51
2021/12/26 08:16:18;;;;;;;25.17;20.40;;;;;;;2.62;100.00;99379.78;5030235;28;20179;-51
2021/12/26 08:18:43;;;;;;;25.60;20.33;;;;;;;2.62;100.00;99383.22;5034416;28;20203;-50
2021/12/26 08:21:09;;;;;;;25.37;21.10;;;;;;;2.63;100.00;99376.38;5030930;28;20198;-53
2021/12/26 08:23:34;;;;;;;24.40;20.07;;;;;;;2.67;100.00;99385.81;5033164;28;20245;-50
2021/12/26 08:26:01;;;;;;;25.13;20.97;;;;;;;2.68;100.00;99378.13;5032445;28;20270;-51
2021/12/26 08:28:27;;;;;;;24.17;20.30;;;;;;;2.71;100.00;99383.28;5029748;28;20211;-51
2021/12/26 08:30:53;;;;;;;25.60;21.90;;;;;;;2.74;100.00;99378.19;5034962;28;20182;-51
2021/12/26 08:33:18;;;;;;;27.67;21.57;;;;;;;2.79;100.00;99382.50;5030731;28;20235;-51
2021/12/26 08:35:46;;;;;;;24.53;19.87;;;;;;;2.81;100.00;99384.22;5030867;28;20205;-51
2021/12/26 08:38:15;;;;;;;23.07;19.30;;;;;;;2.85;100.00;99379.97;5029482;28;20550;-51
2021/12/26 08:40:41;;;;;;;22.67;19.10;;;;;;;2.90;100.00;99384.28;5031019;28;20183;-51
2021/12/26 08:43:07;;;;;;;22.10;18.10;;;;;;;2.98;100.00;99389.44;5027381;28;20180;-51
2021/12/26 08:45:33;;;;;;;24.93;20.37;;;;;;;3.04;100.00;99389.50;5034217;28;20195;-49
2021/12/26 08:48:00;;;;;;;23.93;20.37;;;;;;;3.07;100.00;99396.31;5029749;28;20664;-49
2021/12/26 08:50:26;;;;;;;23.93;19.63;;;;;;;3.10;100.00;99395.50;5030618;28;20196;-49
2021/12/26 08:52:53;;;;;;;23.90;19.73;;;;;;;3.11;100.00;99397.19;5028758;28;20197;-50
2021/12/26 08:55:20;;;;;;;23.03;19.23;;;;;;;3.13;100.00;99398.06;5027416;28;20193;-50
2021/12/26 08:57:47;;;;;;;24.03;20.03;;;;;;;3.16;100.00;99392.97;5025603;28;20211;-50
2021/12/26 09:00:14;;;;;;;24.33;21.27;;;;;;;3.15;100.00;99399.81;5028444;28;20191;-53
2021/12/26 09:02:40;;;;;;;24.83;20.23;;;;;;;3.17;100.00;99397.25;5031356;28;20194;-50
2021/12/26 09:05:06;;;;;;;23.10;19.37;;;;;;;3.19;100.00;99398.13;5026791;28;20203;-50
2021/12/26 09:07:31;;;;;;;25.40;20.83;;;;;;;3.21;100.00;99401.53;5030124;28;20235;-50
2021/12/26 09:09:57;;;;;;;23.37;20.70;;;;;;;3.27;100.00;99401.56;5032489;28;20183;-52
2021/12/26 09:12:23;;;;;;;27.37;21.73;;;;;;;3.31;100.00;99398.19;5029848;28;20225;-51
2021/12/26 09:14:49;;;;;;;23.13;20.20;;;;;;;3.31;100.00;99405.88;5028331;28;20635;-52
2021/12/26 09:17:15;;;;;;;22.93;20.03;;;;;;;3.33;100.00;99406.72;5018684;28;20233;-52
2021/12/26 09:19:40;;;;;;;23.57;20.60;;;;;;;3.33;100.00;99406.72;5014492;28;20745;-50
2021/12/26 09:22:09;;;;;;;22.30;19.90;;;;;;;3.38;100.00;99405.91;5018113;28;20184;-50
2021/12/26 09:24:35;;;;;;;23.43;19.33;;;;;;;3.44;100.00;99401.69;5013952;28;20215;-50
2021/12/26 09:27:01;;;;;;;23.37;18.97;;;;;;;3.49;100.00;99406.81;5024575;28;20219;-50
2021/12/26 09:29:27;;;;;;;22.17;18.67;;;;;;;3.54;100.00;99406.84;5028591;28;20195;-50
2021/12/26 09:31:53;;;;;;;23.97;19.60;;;;;;;3.59;100.00;99415.41;5014652;28;20307;-50
2021/12/26 09:34:19;;;;;;;21.80;19.20;;;;;;;3.61;100.00;99409.44;5015275;28;20676;-50
2021/12/26 09:36:46;;;;;;;23.10;18.97;;;;;;;3.63;100.00;99407.75;5015802;28;20250;-50
2021/12/26 09:39:12;;;;;;;24.07;21.00;;;;;;;3.68;100.00;99410.34;5018463;28;20191;-50
2021/12/26 09:41:38;;;;;;;23.53;19.20;;;;;;;3.71;100.00;99412.03;5013938;28;20191;-50
2021/12/26 09:44:04;;;;;;;27.40;21.27;;;;;;;3.72;100.00;99412.06;5015027;28;20668;-50
2021/12/26 09:46:31;;;;;;;24.07;20.50;;;;;;;3.74;100.00;99409.50;5013759;28;20212;-52
2021/12/26 09:48:58;;;;;;;23.67;20.00;;;;;;;3.74;100.00;99410.38;5014568;28;20588;-52
2021/12/26 09:51:25;;;;;;;24.53;21.00;;;;;;;3.80;100.00;99418.06;5014089;28;20560;-53
2021/12/26 09:53:50;;;;;;;22.60;19.60;;;;;;;3.81;100.00;99417.22;5014941;28;20425;-53
2021/12/26 09:56:16;;;;;;;25.20;20.07;;;;;;;3.84;100.00;99416.41;5018737;28;20188;-52
2021/12/26 09:59:15;;;;;;;23.93;20.47;;;;;;;3.86;100.00;99417.22;5011332;28;20211;-53
2021/12/26 10:01:43;;;;;;;22.37;18.60;;;;;;;3.88;100.00;99407.00;5008930;28;20203;-50
2021/12/26 10:04:17;;;;;;;23.10;19.30;;;;;;;3.86;100.00;99403.59;5010383;28;20188;-51
2021/12/26 10:06:44;;;;;;;32.17;28.70;;;;;;;3.84;100.00;99411.28;5013386;28;20191;-50
2021/12/26 10:09:11;;;;;;;22.37;19.97;;;;;;;3.82;100.00;99405.28;5017120;28;20677;-50
2021/12/26 10:11:47;;;;;;;24.10;19.13;;;;;;;3.83;100.00;99407.00;5016145;28;20191;-50
2021/12/26 10:14:25;;;;;;;23.83;19.17;;;;;;;3.85;100.00;99402.75;5016026;28;20192;-52
2021/12/26 10:16:55;;;;;;;20.83;18.27;;;;;;;3.86;100.00;99395.91;5016698;28;20202;-52
2021/12/26 10:19:21;;;;;;;20.33;18.03;;;;;;;3.87;100.00;99395.91;5016707;28;20192;-52
2021/12/26 10:21:51;;;;;;;20.97;17.80;;;;;;;3.90;100.00;99383.13;5014150;28;20192;-52
2021/12/26 10:24:22;;;;;;;19.77;16.50;;;;;;;3.92;100.00;99383.16;5014758;28;20211;-52
2021/12/26 10:26:52;;;;;;;21.37;17.87;;;;;;;3.94;100.00;99382.28;5012169;28;20219;-51
2021/12/26 10:29:20;;;;;;;23.67;19.90;;;;;;;3.96;100.00;99387.41;5011426;28;20253;-51
2021/12/26 10:32:05;;;;;;;21.43;18.60;;;;;;;3.97;100.00;99377.19;5015204;28;20183;-50
2021/12/26 10:34:34;;;;;;;21.80;18.97;;;;;;;3.99;100.00;99368.66;5023911;28;20176;-50
2021/12/26 10:37:03;;;;;;;23.60;19.80;;;;;;;4.00;100.00;99360.97;5012740;28;20216;-51
2021/12/26 10:39:38;;;;;;;22.47;19.47;;;;;;;4.03;100.00;99361.00;5015986;28;20652;-51
2021/12/26 10:42:07;;;;;;;21.90;18.13;;;;;;;4.06;100.00;99357.56;5011084;28;20609;-51
2021/12/26 10:44:38;;;;;;;22.70;19.07;;;;;;;4.11;100.00;99358.44;5006729;28;20910;-51
2021/12/26 10:47:07;;;;;;;20.63;18.13;;;;;;;4.15;100.00;99359.31;5006823;28;20244;-50
2021/12/26 10:49:39;;;;;;;19.90;17.60;;;;;;;4.20;100.00;99365.28;5012505;28;20202;-51
2021/12/26 10:52:36;;;;;;;21.03;18.47;;;;;;;4.23;100.00;99365.31;5012221;28;20277;-50
2021/12/26 10:55:03;;;;;;;21.63;18.87;;;;;;;4.23;100.00;99355.91;5015675;28;20652;-51
2021/12/26 10:57:34;;;;;;;20.77;17.47;;;;;;;4.27;100.00;99362.75;5012895;28;20648;-51
2021/12/26 11:00:07;;;;;;;21.07;17.83;;;;;;;4.27;100.00;99361.88;5016233;28;20605;-51
2021/12/26 11:02:34;;;;;;;19.53;16.67;;;;;;;4.29;100.00;99361.91;5010556;28;20227;-51
2021/12/26 11:05:08;;;;;;;18.70;16.73;;;;;;;4.31;100.00;99355.91;5012800;28;20256;-50
2021/12/26 11:07:41;;;;;;;20.70;17.87;;;;;;;4.33;100.00;99353.34;5014859;28;20500;-51
2021/12/26 11:10:19;;;;;;;19.80;17.70;;;;;;;4.37;100.00;99362.75;5016009;28;20649;-51
2021/12/26 11:12:57;;;;;;;20.90;17.73;;;;;;;4.39;100.00;99358.50;5016043;28;20191;-51
2021/12/26 11:15:25;;;;;;;20.87;18.33;;;;;;;4.40;100.00;99365.31;5012604;28;20192;-51
2021/12/26 11:17:56;;;;;;;21.17;18.73;;;;;;;4.39;100.00;99363.63;5014304;28;20238;-50
2021/12/26 11:20:46;;;;;;;20.13;17.23;;;;;;;4.42;100.00;99353.38;5015188;28;20187;-51
2021/12/26 11:23:16;;;;;;;18.20;16.23;;;;;;;4.45;100.00;99349.94;5015676;28;20203;-51